sensor_id;sensor_type;location;lat;lon;timestamp;temperature;humidity
65046;DHT22;54657;52.022;5.534;2023-02-05T00:02:05;10.00;86.80
65046;DHT22;54657;52.022;5.534;2023-02-05T00:04:32;10.00;86.90
65046;DHT22;54657;52.022;5.534;2023-02-05T00:06:57;10.00;87.00
65046;DHT22;54657;52.022;5.534;2023-02-05T00:09:23;10.00;86.90
65046;DHT22;54657;52.022;5.534;2023-02-05T00:11:48;10.00;87.20
65046;DHT22;54657;52.022;5.534;2023-02-05T00:14:14;10.00;87.10
65046;DHT22;54657;52.022;5.534;2023-02-05T00:16:39;10.10;87.00
65046;DHT22;54657;52.022;5.534;2023-02-05T00:19:05;10.10;86.90
65046;DHT22;54657;52.022;5.534;2023-02-05T00:21:31;10.10;86.80
65046;DHT22;54657;52.022;5.534;2023-02-05T00:23:56;10.10;87.00
65046;DHT22;54657;52.022;5.534;2023-02-05T00:26:22;10.10;87.00
65046;DHT22;54657;52.022;5.534;2023-02-05T00:28:47;10.10;87.00
65046;DHT22;54657;52.022;5.534;2023-02-05T00:31:18;10.10;87.20
65046;DHT22;54657;52.022;5.534;2023-02-05T00:33:44;10.10;87.30
65046;DHT22;54657;52.022;5.534;2023-02-05T00:36:11;10.10;87.00
65046;DHT22;54657;52.022;5.534;2023-02-05T00:38:37;10.10;87.40
65046;DHT22;54657;52.022;5.534;2023-02-05T00:41:03;10.00;87.40
65046;DHT22;54657;52.022;5.534;2023-02-05T00:43:29;10.00;87.70
65046;DHT22;54657;52.022;5.534;2023-02-05T00:45:55;10.00;87.60
65046;DHT22;54657;52.022;5.534;2023-02-05T00:48:20;10.00;87.70
65046;DHT22;54657;52.022;5.534;2023-02-05T00:50:48;10.10;87.80
65046;DHT22;54657;52.022;5.534;2023-02-05T00:53:14;10.10;87.60
65046;DHT22;54657;52.022;5.534;2023-02-05T00:55:39;10.10;87.60
65046;DHT22;54657;52.022;5.534;2023-02-05T00:58:05;10.10;87.70
65046;DHT22;54657;52.022;5.534;2023-02-05T01:00:30;10.10;87.60
65046;DHT22;54657;52.022;5.534;2023-02-05T01:02:57;10.10;87.70
65046;DHT22;54657;52.022;5.534;2023-02-05T01:05:23;10.10;87.70
65046;DHT22;54657;52.022;5.534;2023-02-05T01:07:48;10.10;87.60
65046;DHT22;54657;52.022;5.534;2023-02-05T01:10:14;10.10;87.70
65046;DHT22;54657;52.022;5.534;2023-02-05T01:12:40;10.10;87.70
65046;DHT22;54657;52.022;5.534;2023-02-05T01:15:07;10.10;87.60
65046;DHT22;54657;52.022;5.534;2023-02-05T01:17:33;10.10;87.80
65046;DHT22;54657;52.022;5.534;2023-02-05T01:19:59;10.10;88.00
65046;DHT22;54657;52.022;5.534;2023-02-05T01:22:24;10.10;87.60
65046;DHT22;54657;52.022;5.534;2023-02-05T01:24:50;10.10;87.90
65046;DHT22;54657;52.022;5.534;2023-02-05T01:27:16;10.10;87.90
65046;DHT22;54657;52.022;5.534;2023-02-05T01:29:41;10.20;88.40
65046;DHT22;54657;52.022;5.534;2023-02-05T01:32:07;10.20;87.80
65046;DHT22;54657;52.022;5.534;2023-02-05T01:34:32;10.20;87.80
65046;DHT22;54657;52.022;5.534;2023-02-05T01:36:58;10.10;87.90
65046;DHT22;54657;52.022;5.534;2023-02-05T01:39:23;10.10;88.00
65046;DHT22;54657;52.022;5.534;2023-02-05T01:41:49;10.10;88.00
65046;DHT22;54657;52.022;5.534;2023-02-05T01:44:18;10.10;87.90
65046;DHT22;54657;52.022;5.534;2023-02-05T01:46:47;10.10;88.20
65046;DHT22;54657;52.022;5.534;2023-02-05T01:49:18;10.10;88.50
65046;DHT22;54657;52.022;5.534;2023-02-05T01:51:46;10.10;88.60
65046;DHT22;54657;52.022;5.534;2023-02-05T01:54:14;10.00;88.50
65046;DHT22;54657;52.022;5.534;2023-02-05T01:57:35;10.10;88.70
65046;DHT22;54657;52.022;5.534;2023-02-05T01:59:38;10.10;89.10
65046;DHT22;54657;52.022;5.534;2023-02-05T02:02:05;10.00;88.90
65046;DHT22;54657;52.022;5.534;2023-02-05T02:04:39;9.90;89.10
65046;DHT22;54657;52.022;5.534;2023-02-05T02:07:06;9.90;89.30
65046;DHT22;54657;52.022;5.534;2023-02-05T02:09:33;9.90;89.40
65046;DHT22;54657;52.022;5.534;2023-02-05T02:12:00;9.90;89.50
65046;DHT22;54657;52.022;5.534;2023-02-05T02:14:28;9.90;89.70
65046;DHT22;54657;52.022;5.534;2023-02-05T02:16:55;9.90;89.60
65046;DHT22;54657;52.022;5.534;2023-02-05T02:19:50;9.80;89.60
65046;DHT22;54657;52.022;5.534;2023-02-05T02:31:15;9.80;89.90
65046;DHT22;54657;52.022;5.534;2023-02-05T02:33:57;9.80;90.00
65046;DHT22;54657;52.022;5.534;2023-02-05T02:41:30;9.70;89.90
65046;DHT22;54657;52.022;5.534;2023-02-05T02:44:02;9.70;90.00
65046;DHT22;54657;52.022;5.534;2023-02-05T02:46:35;9.70;90.00
65046;DHT22;54657;52.022;5.534;2023-02-05T02:49:06;9.70;90.50
65046;DHT22;54657;52.022;5.534;2023-02-05T02:51:35;9.60;90.10
65046;DHT22;54657;52.022;5.534;2023-02-05T02:54:05;9.60;90.20
65046;DHT22;54657;52.022;5.534;2023-02-05T02:56:32;9.60;90.10
65046;DHT22;54657;52.022;5.534;2023-02-05T02:59:07;9.60;90.10
65046;DHT22;54657;52.022;5.534;2023-02-05T03:01:37;9.70;90.00
65046;DHT22;54657;52.022;5.534;2023-02-05T03:04:11;9.70;89.70
65046;DHT22;54657;52.022;5.534;2023-02-05T03:06:41;9.70;89.70
65046;DHT22;54657;52.022;5.534;2023-02-05T03:09:12;9.80;89.70
65046;DHT22;54657;52.022;5.534;2023-02-05T03:11:42;9.70;89.70
65046;DHT22;54657;52.022;5.534;2023-02-05T03:14:07;9.80;89.30
65046;DHT22;54657;52.022;5.534;2023-02-05T03:16:33;9.70;89.30
65046;DHT22;54657;52.022;5.534;2023-02-05T03:18:59;9.70;89.30
65046;DHT22;54657;52.022;5.534;2023-02-05T03:21:31;9.70;89.20
65046;DHT22;54657;52.022;5.534;2023-02-05T03:23:58;9.70;89.40
65046;DHT22;54657;52.022;5.534;2023-02-05T03:26:28;9.70;89.50
65046;DHT22;54657;52.022;5.534;2023-02-05T03:28:55;9.70;89.50
65046;DHT22;54657;52.022;5.534;2023-02-05T03:34:50;9.60;89.60
65046;DHT22;54657;52.022;5.534;2023-02-05T03:40:30;9.50;89.70
65046;DHT22;54657;52.022;5.534;2023-02-05T03:46:04;9.50;89.80
65046;DHT22;54657;52.022;5.534;2023-02-05T03:51:31;9.60;89.40
65046;DHT22;54657;52.022;5.534;2023-02-05T03:54:10;9.60;89.00
65046;DHT22;54657;52.022;5.534;2023-02-05T03:56:39;9.60;89.20
65046;DHT22;54657;52.022;5.534;2023-02-05T03:59:08;9.60;89.00
65046;DHT22;54657;52.022;5.534;2023-02-05T04:01:34;9.70;88.90
65046;DHT22;54657;52.022;5.534;2023-02-05T04:03:59;9.70;88.70
65046;DHT22;54657;52.022;5.534;2023-02-05T04:06:25;9.70;88.50
65046;DHT22;54657;52.022;5.534;2023-02-05T04:08:51;9.70;88.50
65046;DHT22;54657;52.022;5.534;2023-02-05T04:11:16;9.70;88.30
65046;DHT22;54657;52.022;5.534;2023-02-05T04:13:42;9.80;88.20
65046;DHT22;54657;52.022;5.534;2023-02-05T04:16:07;9.70;88.20
65046;DHT22;54657;52.022;5.534;2023-02-05T04:18:33;9.80;88.80
65046;DHT22;54657;52.022;5.534;2023-02-05T04:20:58;9.80;88.00
65046;DHT22;54657;52.022;5.534;2023-02-05T04:23:24;9.80;88.20
65046;DHT22;54657;52.022;5.534;2023-02-05T04:25:54;9.70;88.30
65046;DHT22;54657;52.022;5.534;2023-02-05T04:28:20;9.70;88.30
65046;DHT22;54657;52.022;5.534;2023-02-05T04:30:45;9.70;88.40
65046;DHT22;54657;52.022;5.534;2023-02-05T04:33:11;9.70;88.40
65046;DHT22;54657;52.022;5.534;2023-02-05T04:35:37;9.70;88.30
65046;DHT22;54657;52.022;5.534;2023-02-05T04:38:02;9.70;88.30
65046;DHT22;54657;52.022;5.534;2023-02-05T04:40:28;9.60;88.50
65046;DHT22;54657;52.022;5.534;2023-02-05T04:42:54;9.60;88.80
65046;DHT22;54657;52.022;5.534;2023-02-05T04:45:20;9.60;89.00
65046;DHT22;54657;52.022;5.534;2023-02-05T04:47:47;9.60;89.10
65046;DHT22;54657;52.022;5.534;2023-02-05T04:50:12;9.50;89.20
65046;DHT22;54657;52.022;5.534;2023-02-05T04:52:38;9.50;89.20
65046;DHT22;54657;52.022;5.534;2023-02-05T04:55:04;9.50;89.30
65046;DHT22;54657;52.022;5.534;2023-02-05T04:57:30;9.50;89.30
65046;DHT22;54657;52.022;5.534;2023-02-05T04:59:56;9.50;89.50
65046;DHT22;54657;52.022;5.534;2023-02-05T05:02:22;9.40;89.60
65046;DHT22;54657;52.022;5.534;2023-02-05T05:04:48;9.30;89.90
65046;DHT22;54657;52.022;5.534;2023-02-05T05:07:14;9.30;90.10
65046;DHT22;54657;52.022;5.534;2023-02-05T05:09:41;9.30;90.10
65046;DHT22;54657;52.022;5.534;2023-02-05T05:12:07;9.30;90.10
65046;DHT22;54657;52.022;5.534;2023-02-05T05:14:32;9.30;90.00
65046;DHT22;54657;52.022;5.534;2023-02-05T05:16:58;9.20;90.10
65046;DHT22;54657;52.022;5.534;2023-02-05T05:19:23;9.20;90.30
65046;DHT22;54657;52.022;5.534;2023-02-05T05:21:49;9.20;90.30
65046;DHT22;54657;52.022;5.534;2023-02-05T05:24:15;9.20;90.30
65046;DHT22;54657;52.022;5.534;2023-02-05T05:26:40;9.20;90.40
65046;DHT22;54657;52.022;5.534;2023-02-05T05:29:10;9.20;90.40
65046;DHT22;54657;52.022;5.534;2023-02-05T05:31:36;9.10;90.40
65046;DHT22;54657;52.022;5.534;2023-02-05T05:34:01;9.10;90.50
65046;DHT22;54657;52.022;5.534;2023-02-05T05:36:27;9.00;90.60
65046;DHT22;54657;52.022;5.534;2023-02-05T05:38:53;9.00;90.70
65046;DHT22;54657;52.022;5.534;2023-02-05T05:41:21;8.90;90.70
65046;DHT22;54657;52.022;5.534;2023-02-05T05:44:06;8.90;90.90
65046;DHT22;54657;52.022;5.534;2023-02-05T05:46:31;8.80;90.90
65046;DHT22;54657;52.022;5.534;2023-02-05T05:48:58;8.80;90.90
65046;DHT22;54657;52.022;5.534;2023-02-05T05:51:26;8.80;90.80
65046;DHT22;54657;52.022;5.534;2023-02-05T05:53:52;8.80;91.00
65046;DHT22;54657;52.022;5.534;2023-02-05T05:56:19;8.70;91.30
65046;DHT22;54657;52.022;5.534;2023-02-05T05:58:45;8.60;91.20
65046;DHT22;54657;52.022;5.534;2023-02-05T06:01:12;8.60;91.30
65046;DHT22;54657;52.022;5.534;2023-02-05T06:03:39;8.50;91.40
65046;DHT22;54657;52.022;5.534;2023-02-05T06:06:06;8.40;92.00
65046;DHT22;54657;52.022;5.534;2023-02-05T06:08:33;8.20;91.60
65046;DHT22;54657;52.022;5.534;2023-02-05T06:10:59;8.20;91.30
65046;DHT22;54657;52.022;5.534;2023-02-05T06:13:25;8.00;91.50
65046;DHT22;54657;52.022;5.534;2023-02-05T06:15:51;7.90;91.60
65046;DHT22;54657;52.022;5.534;2023-02-05T06:18:17;7.90;91.70
65046;DHT22;54657;52.022;5.534;2023-02-05T06:20:43;7.80;91.50
65046;DHT22;54657;52.022;5.534;2023-02-05T06:23:08;7.70;91.40
65046;DHT22;54657;52.022;5.534;2023-02-05T06:25:34;7.70;91.40
65046;DHT22;54657;52.022;5.534;2023-02-05T06:27:59;7.60;91.20
65046;DHT22;54657;52.022;5.534;2023-02-05T06:30:26;7.60;91.00
65046;DHT22;54657;52.022;5.534;2023-02-05T06:32:52;7.60;91.00
65046;DHT22;54657;52.022;5.534;2023-02-05T06:35:17;7.50;90.80
65046;DHT22;54657;52.022;5.534;2023-02-05T06:37:43;7.40;90.40
65046;DHT22;54657;52.022;5.534;2023-02-05T06:40:09;7.40;90.10
65046;DHT22;54657;52.022;5.534;2023-02-05T06:42:35;7.40;90.10
65046;DHT22;54657;52.022;5.534;2023-02-05T06:45:01;7.30;90.20
65046;DHT22;54657;52.022;5.534;2023-02-05T06:47:27;7.40;90.10
65046;DHT22;54657;52.022;5.534;2023-02-05T06:49:52;7.30;90.20
65046;DHT22;54657;52.022;5.534;2023-02-05T06:52:18;7.30;90.20
65046;DHT22;54657;52.022;5.534;2023-02-05T06:54:43;7.30;90.30
65046;DHT22;54657;52.022;5.534;2023-02-05T06:57:10;7.20;90.60
65046;DHT22;54657;52.022;5.534;2023-02-05T06:59:35;7.20;90.90
65046;DHT22;54657;52.022;5.534;2023-02-05T07:02:01;7.20;90.70
65046;DHT22;54657;52.022;5.534;2023-02-05T07:04:26;7.20;90.70
65046;DHT22;54657;52.022;5.534;2023-02-05T07:06:56;7.10;91.00
65046;DHT22;54657;52.022;5.534;2023-02-05T07:09:22;7.20;90.70
65046;DHT22;54657;52.022;5.534;2023-02-05T07:11:48;7.20;90.60
65046;DHT22;54657;52.022;5.534;2023-02-05T07:14:14;7.20;90.90
65046;DHT22;54657;52.022;5.534;2023-02-05T07:16:39;7.20;90.60
65046;DHT22;54657;52.022;5.534;2023-02-05T07:19:05;7.20;90.80
65046;DHT22;54657;52.022;5.534;2023-02-05T07:21:30;7.20;90.40
65046;DHT22;54657;52.022;5.534;2023-02-05T07:23:56;7.20;91.00
65046;DHT22;54657;52.022;5.534;2023-02-05T07:26:22;7.20;90.50
65046;DHT22;54657;52.022;5.534;2023-02-05T07:28:48;7.20;90.60
65046;DHT22;54657;52.022;5.534;2023-02-05T07:31:15;7.20;90.60
65046;DHT22;54657;52.022;5.534;2023-02-05T07:33:43;7.20;90.90
65046;DHT22;54657;52.022;5.534;2023-02-05T07:36:10;7.20;91.10
65046;DHT22;54657;52.022;5.534;2023-02-05T07:38:36;7.20;90.90
65046;DHT22;54657;52.022;5.534;2023-02-05T07:41:06;7.20;90.70
65046;DHT22;54657;52.022;5.534;2023-02-05T07:43:32;7.20;90.80
65046;DHT22;54657;52.022;5.534;2023-02-05T07:46:01;7.20;90.70
65046;DHT22;54657;52.022;5.534;2023-02-05T07:48:27;7.20;90.90
65046;DHT22;54657;52.022;5.534;2023-02-05T07:50:52;7.30;90.70
65046;DHT22;54657;52.022;5.534;2023-02-05T07:53:18;7.30;90.90
65046;DHT22;54657;52.022;5.534;2023-02-05T07:55:44;7.30;90.60
65046;DHT22;54657;52.022;5.534;2023-02-05T07:58:10;7.30;90.60
65046;DHT22;54657;52.022;5.534;2023-02-05T08:00:36;7.40;90.50
65046;DHT22;54657;52.022;5.534;2023-02-05T08:03:02;7.40;90.60
65046;DHT22;54657;52.022;5.534;2023-02-05T08:05:27;7.40;90.20
65046;DHT22;54657;52.022;5.534;2023-02-05T08:07:53;7.40;90.10
65046;DHT22;54657;52.022;5.534;2023-02-05T08:10:19;7.40;90.20
65046;DHT22;54657;52.022;5.534;2023-02-05T08:12:45;7.40;90.10
65046;DHT22;54657;52.022;5.534;2023-02-05T08:15:10;7.40;90.00
65046;DHT22;54657;52.022;5.534;2023-02-05T08:17:36;7.50;89.80
65046;DHT22;54657;52.022;5.534;2023-02-05T08:20:02;7.50;89.70
65046;DHT22;54657;52.022;5.534;2023-02-05T08:22:33;7.50;89.20
65046;DHT22;54657;52.022;5.534;2023-02-05T08:24:59;7.50;89.30
65046;DHT22;54657;52.022;5.534;2023-02-05T08:27:25;7.60;88.90
65046;DHT22;54657;52.022;5.534;2023-02-05T08:29:51;7.60;88.20
65046;DHT22;54657;52.022;5.534;2023-02-05T08:32:16;7.60;88.10
65046;DHT22;54657;52.022;5.534;2023-02-05T08:34:42;7.70;88.10
65046;DHT22;54657;52.022;5.534;2023-02-05T08:37:08;7.70;88.20
65046;DHT22;54657;52.022;5.534;2023-02-05T08:39:33;7.70;88.00
65046;DHT22;54657;52.022;5.534;2023-02-05T08:41:59;7.70;88.10
65046;DHT22;54657;52.022;5.534;2023-02-05T08:44:26;7.70;88.10
65046;DHT22;54657;52.022;5.534;2023-02-05T08:46:51;7.70;88.20
65046;DHT22;54657;52.022;5.534;2023-02-05T08:49:19;7.70;88.30
65046;DHT22;54657;52.022;5.534;2023-02-05T08:51:45;7.60;88.70
65046;DHT22;54657;52.022;5.534;2023-02-05T08:54:13;7.60;88.80
65046;DHT22;54657;52.022;5.534;2023-02-05T08:56:41;7.60;88.60
65046;DHT22;54657;52.022;5.534;2023-02-05T08:59:07;7.60;88.80
65046;DHT22;54657;52.022;5.534;2023-02-05T09:01:34;7.70;88.70
65046;DHT22;54657;52.022;5.534;2023-02-05T09:04:13;7.70;88.90
65046;DHT22;54657;52.022;5.534;2023-02-05T09:06:39;7.70;89.20
65046;DHT22;54657;52.022;5.534;2023-02-05T09:09:05;7.70;88.80
65046;DHT22;54657;52.022;5.534;2023-02-05T09:11:31;7.70;88.70
65046;DHT22;54657;52.022;5.534;2023-02-05T09:13:57;7.70;88.60
65046;DHT22;54657;52.022;5.534;2023-02-05T09:16:23;7.70;88.80
65046;DHT22;54657;52.022;5.534;2023-02-05T09:18:49;7.70;88.90
65046;DHT22;54657;52.022;5.534;2023-02-05T09:21:15;7.80;88.70
65046;DHT22;54657;52.022;5.534;2023-02-05T09:23:41;7.80;88.50
65046;DHT22;54657;52.022;5.534;2023-02-05T09:26:07;7.90;87.90
65046;DHT22;54657;52.022;5.534;2023-02-05T09:28:33;7.90;87.90
65046;DHT22;54657;52.022;5.534;2023-02-05T09:31:10;7.80;88.50
65046;DHT22;54657;52.022;5.534;2023-02-05T09:33:36;7.90;88.30
65046;DHT22;54657;52.022;5.534;2023-02-05T09:36:13;7.90;87.70
65046;DHT22;54657;52.022;5.534;2023-02-05T09:38:43;8.00;87.70
65046;DHT22;54657;52.022;5.534;2023-02-05T09:49:45;8.10;86.70
65046;DHT22;54657;52.022;5.534;2023-02-05T09:52:19;8.10;86.40
65046;DHT22;54657;52.022;5.534;2023-02-05T09:54:53;8.10;86.30
65046;DHT22;54657;52.022;5.534;2023-02-05T09:57:31;8.20;86.60
65046;DHT22;54657;52.022;5.534;2023-02-05T09:59:57;8.20;86.70
65046;DHT22;54657;52.022;5.534;2023-02-05T10:02:40;8.10;86.80
65046;DHT22;54657;52.022;5.534;2023-02-05T10:05:19;8.20;86.40
65046;DHT22;54657;52.022;5.534;2023-02-05T10:08:47;8.20;86.20
65046;DHT22;54657;52.022;5.534;2023-02-05T10:10:46;8.30;85.60
65046;DHT22;54657;52.022;5.534;2023-02-05T10:22:11;8.40;84.80
65046;DHT22;54657;52.022;5.534;2023-02-05T10:24:53;8.30;84.60
65046;DHT22;54657;52.022;5.534;2023-02-05T10:27:23;8.30;83.40
65046;DHT22;54657;52.022;5.534;2023-02-05T10:32:27;8.40;83.20
65046;DHT22;54657;52.022;5.534;2023-02-05T10:37:50;8.40;81.80
65046;DHT22;54657;52.022;5.534;2023-02-05T10:40:30;8.40;82.40
65046;DHT22;54657;52.022;5.534;2023-02-05T10:43:09;8.40;83.20
65046;DHT22;54657;52.022;5.534;2023-02-05T10:45:38;8.50;83.60
65046;DHT22;54657;52.022;5.534;2023-02-05T10:50:59;8.50;83.40
65046;DHT22;54657;52.022;5.534;2023-02-05T10:53:27;8.60;83.10
65046;DHT22;54657;52.022;5.534;2023-02-05T10:55:53;8.60;83.60
65046;DHT22;54657;52.022;5.534;2023-02-05T11:00:59;8.60;81.50
65046;DHT22;54657;52.022;5.534;2023-02-05T11:03:25;8.60;82.80
65046;DHT22;54657;52.022;5.534;2023-02-05T11:05:51;8.60;82.70
65046;DHT22;54657;52.022;5.534;2023-02-05T11:08:43;8.60;82.40
65046;DHT22;54657;52.022;5.534;2023-02-05T11:14:06;8.60;80.50
65046;DHT22;54657;52.022;5.534;2023-02-05T11:16:40;8.60;81.90
65046;DHT22;54657;52.022;5.534;2023-02-05T11:19:20;8.70;81.30
65046;DHT22;54657;52.022;5.534;2023-02-05T11:21:55;8.70;81.40
65046;DHT22;54657;52.022;5.534;2023-02-05T11:24:39;8.70;81.70
65046;DHT22;54657;52.022;5.534;2023-02-05T11:27:30;8.70;81.40
65046;DHT22;54657;52.022;5.534;2023-02-05T11:30:23;8.70;81.20
65046;DHT22;54657;52.022;5.534;2023-02-05T11:38:58;8.80;81.10
65046;DHT22;54657;52.022;5.534;2023-02-05T11:41:34;8.70;81.50
65046;DHT22;54657;52.022;5.534;2023-02-05T11:44:32;8.70;81.00
65046;DHT22;54657;52.022;5.534;2023-02-05T11:47:00;8.80;81.20
65046;DHT22;54657;52.022;5.534;2023-02-05T11:49:54;8.80;81.30
65046;DHT22;54657;52.022;5.534;2023-02-05T11:52:31;8.80;78.40
65046;DHT22;54657;52.022;5.534;2023-02-05T11:58:29;8.80;78.60
65046;DHT22;54657;52.022;5.534;2023-02-05T12:01:01;8.80;79.60
65046;DHT22;54657;52.022;5.534;2023-02-05T12:03:38;8.80;80.40
65046;DHT22;54657;52.022;5.534;2023-02-05T12:08:46;8.80;80.70
65046;DHT22;54657;52.022;5.534;2023-02-05T12:19:23;8.90;78.60
65046;DHT22;54657;52.022;5.534;2023-02-05T12:27:32;8.90;79.10
65046;DHT22;54657;52.022;5.534;2023-02-05T12:30:28;8.90;80.00
65046;DHT22;54657;52.022;5.534;2023-02-05T12:54:52;9.10;75.20
65046;DHT22;54657;52.022;5.534;2023-02-05T12:57:45;9.10;76.10
65046;DHT22;54657;52.022;5.534;2023-02-05T13:00:51;9.10;76.00
65046;DHT22;54657;52.022;5.534;2023-02-05T13:03:29;9.10;75.30
65046;DHT22;54657;52.022;5.534;2023-02-05T13:09:22;9.00;76.30
65046;DHT22;54657;52.022;5.534;2023-02-05T13:12:05;9.00;75.10
65046;DHT22;54657;52.022;5.534;2023-02-05T13:15:26;9.00;76.80
65046;DHT22;54657;52.022;5.534;2023-02-05T13:18:19;9.00;77.90
65046;DHT22;54657;52.022;5.534;2023-02-05T13:20:37;9.00;76.70
65046;DHT22;54657;52.022;5.534;2023-02-05T13:23:23;9.10;76.40
65046;DHT22;54657;52.022;5.534;2023-02-05T13:26:10;9.00;77.30
65046;DHT22;54657;52.022;5.534;2023-02-05T13:28:46;9.00;76.80
65046;DHT22;54657;52.022;5.534;2023-02-05T13:33:49;9.00;75.80
65046;DHT22;54657;52.022;5.534;2023-02-05T13:39:22;9.10;75.40
65046;DHT22;54657;52.022;5.534;2023-02-05T13:48:01;9.10;74.10
65046;DHT22;54657;52.022;5.534;2023-02-05T13:50:46;9.10;75.50
65046;DHT22;54657;52.022;5.534;2023-02-05T13:53:46;9.20;75.70
65046;DHT22;54657;52.022;5.534;2023-02-05T13:56:40;9.10;75.20
65046;DHT22;54657;52.022;5.534;2023-02-05T13:59:35;9.20;74.70
65046;DHT22;54657;52.022;5.534;2023-02-05T14:02:02;9.20;73.90
65046;DHT22;54657;52.022;5.534;2023-02-05T14:04:39;9.20;76.70
65046;DHT22;54657;52.022;5.534;2023-02-05T14:07:21;9.30;75.30
65046;DHT22;54657;52.022;5.534;2023-02-05T14:09:51;9.20;75.20
65046;DHT22;54657;52.022;5.534;2023-02-05T14:12:32;9.20;76.60
65046;DHT22;54657;52.022;5.534;2023-02-05T14:22:49;9.40;75.10
65046;DHT22;54657;52.022;5.534;2023-02-05T14:33:35;9.30;74.70
65046;DHT22;54657;52.022;5.534;2023-02-05T14:41:23;9.30;73.60
65046;DHT22;54657;52.022;5.534;2023-02-05T14:43:59;9.30;75.90
65046;DHT22;54657;52.022;5.534;2023-02-05T14:46:34;9.30;74.40
65046;DHT22;54657;52.022;5.534;2023-02-05T14:49:03;9.30;74.60
65046;DHT22;54657;52.022;5.534;2023-02-05T14:54:06;9.10;75.20
65046;DHT22;54657;52.022;5.534;2023-02-05T14:56:43;9.10;75.20
65046;DHT22;54657;52.022;5.534;2023-02-05T15:11:23;9.10;74.90
65046;DHT22;54657;52.022;5.534;2023-02-05T15:14:25;9.10;76.40
65046;DHT22;54657;52.022;5.534;2023-02-05T15:20:18;9.00;75.50
65046;DHT22;54657;52.022;5.534;2023-02-05T15:23:05;9.00;75.30
65046;DHT22;54657;52.022;5.534;2023-02-05T15:26:18;9.00;76.20
65046;DHT22;54657;52.022;5.534;2023-02-05T15:29:19;8.90;75.50
65046;DHT22;54657;52.022;5.534;2023-02-05T15:32:29;8.90;75.60
65046;DHT22;54657;52.022;5.534;2023-02-05T15:37:56;8.80;76.40
65046;DHT22;54657;52.022;5.534;2023-02-05T15:40:35;8.80;77.10
65046;DHT22;54657;52.022;5.534;2023-02-05T15:43:24;8.90;76.60
65046;DHT22;54657;52.022;5.534;2023-02-05T15:45:59;8.80;76.80
65046;DHT22;54657;52.022;5.534;2023-02-05T15:48:27;8.80;76.80
65046;DHT22;54657;52.022;5.534;2023-02-05T15:53:54;8.70;75.70
65046;DHT22;54657;52.022;5.534;2023-02-05T15:57:14;8.70;76.70
65046;DHT22;54657;52.022;5.534;2023-02-05T15:59:45;8.70;76.90
65046;DHT22;54657;52.022;5.534;2023-02-05T16:08:13;8.60;77.30
65046;DHT22;54657;52.022;5.534;2023-02-05T16:10:57;8.60;77.10
65046;DHT22;54657;52.022;5.534;2023-02-05T16:16:57;8.60;76.90
65046;DHT22;54657;52.022;5.534;2023-02-05T16:22:28;8.50;77.00
65046;DHT22;54657;52.022;5.534;2023-02-05T16:25:48;8.50;76.90
65046;DHT22;54657;52.022;5.534;2023-02-05T16:28:36;8.50;76.90
65046;DHT22;54657;52.022;5.534;2023-02-05T16:31:05;8.40;77.20
65046;DHT22;54657;52.022;5.534;2023-02-05T16:34:03;8.30;77.80
65046;DHT22;54657;52.022;5.534;2023-02-05T16:54:33;8.20;78.70
65046;DHT22;54657;52.022;5.534;2023-02-05T16:57:21;8.20;78.80
65046;DHT22;54657;52.022;5.534;2023-02-05T17:00:49;8.10;78.90
65046;DHT22;54657;52.022;5.534;2023-02-05T17:03:24;8.10;78.80
65046;DHT22;54657;52.022;5.534;2023-02-05T17:05:56;8.10;79.10
65046;DHT22;54657;52.022;5.534;2023-02-05T17:08:38;8.10;79.50
65046;DHT22;54657;52.022;5.534;2023-02-05T17:11:29;8.10;79.20
65046;DHT22;54657;52.022;5.534;2023-02-05T17:20:48;8.00;79.70
65046;DHT22;54657;52.022;5.534;2023-02-05T17:23:17;8.00;80.10
65046;DHT22;54657;52.022;5.534;2023-02-05T17:28:25;7.90;80.40
65046;DHT22;54657;52.022;5.534;2023-02-05T17:30:53;8.00;80.40
65046;DHT22;54657;52.022;5.534;2023-02-05T17:33:31;7.90;80.60
65046;DHT22;54657;52.022;5.534;2023-02-05T17:35:56;7.90;80.60
65046;DHT22;54657;52.022;5.534;2023-02-05T17:38:37;7.90;80.80
65046;DHT22;54657;52.022;5.534;2023-02-05T17:43:38;7.80;81.00
65046;DHT22;54657;52.022;5.534;2023-02-05T17:46:12;7.80;81.10
65046;DHT22;54657;52.022;5.534;2023-02-05T17:49:17;7.80;81.30
65046;DHT22;54657;52.022;5.534;2023-02-05T17:52:01;7.80;81.40
65046;DHT22;54657;52.022;5.534;2023-02-05T17:54:47;7.70;81.70
65046;DHT22;54657;52.022;5.534;2023-02-05T17:57:18;7.70;81.60
65046;DHT22;54657;52.022;5.534;2023-02-05T17:59:44;7.70;81.60
65046;DHT22;54657;52.022;5.534;2023-02-05T18:02:11;7.60;81.70
65046;DHT22;54657;52.022;5.534;2023-02-05T18:04:37;7.60;81.90
65046;DHT22;54657;52.022;5.534;2023-02-05T18:09:55;7.60;82.00
65046;DHT22;54657;52.022;5.534;2023-02-05T18:12:22;7.50;82.10
65046;DHT22;54657;52.022;5.534;2023-02-05T18:14:47;7.50;82.20
65046;DHT22;54657;52.022;5.534;2023-02-05T18:17:13;7.50;82.30
65046;DHT22;54657;52.022;5.534;2023-02-05T18:19:42;7.50;82.30
65046;DHT22;54657;52.022;5.534;2023-02-05T18:22:08;7.50;82.30
65046;DHT22;54657;52.022;5.534;2023-02-05T18:24:42;7.50;82.30
65046;DHT22;54657;52.022;5.534;2023-02-05T18:27:08;7.40;82.50
65046;DHT22;54657;52.022;5.534;2023-02-05T18:29:35;7.40;82.40
65046;DHT22;54657;52.022;5.534;2023-02-05T18:32:00;7.40;82.40
65046;DHT22;54657;52.022;5.534;2023-02-05T18:34:26;7.40;82.50
65046;DHT22;54657;52.022;5.534;2023-02-05T18:37:12;7.40;82.50
65046;DHT22;54657;52.022;5.534;2023-02-05T18:39:39;7.40;83.20
65046;DHT22;54657;52.022;5.534;2023-02-05T18:42:11;7.40;82.70
65046;DHT22;54657;52.022;5.534;2023-02-05T18:44:37;7.40;82.60
65046;DHT22;54657;52.022;5.534;2023-02-05T18:47:24;7.40;82.50
65046;DHT22;54657;52.022;5.534;2023-02-05T18:56:01;7.30;82.80
65046;DHT22;54657;52.022;5.534;2023-02-05T18:59:04;7.30;82.90
65046;DHT22;54657;52.022;5.534;2023-02-05T19:01:29;7.30;83.10
65046;DHT22;54657;52.022;5.534;2023-02-05T19:04:00;7.30;83.10
65046;DHT22;54657;52.022;5.534;2023-02-05T19:06:26;7.30;82.90
65046;DHT22;54657;52.022;5.534;2023-02-05T19:09:23;7.30;83.00
65046;DHT22;54657;52.022;5.534;2023-02-05T19:14:52;7.30;83.20
65046;DHT22;54657;52.022;5.534;2023-02-05T19:17:17;7.30;83.00
65046;DHT22;54657;52.022;5.534;2023-02-05T19:19:44;7.30;83.20
65046;DHT22;54657;52.022;5.534;2023-02-05T19:22:10;7.30;83.20
65046;DHT22;54657;52.022;5.534;2023-02-05T19:24:36;7.30;83.50
65046;DHT22;54657;52.022;5.534;2023-02-05T19:27:02;7.30;83.20
65046;DHT22;54657;52.022;5.534;2023-02-05T19:29:39;7.30;83.50
65046;DHT22;54657;52.022;5.534;2023-02-05T19:32:06;7.40;83.30
65046;DHT22;54657;52.022;5.534;2023-02-05T19:34:34;7.40;83.30
65046;DHT22;54657;52.022;5.534;2023-02-05T19:37:02;7.40;83.90
65046;DHT22;54657;52.022;5.534;2023-02-05T19:39:28;7.40;83.50
65046;DHT22;54657;52.022;5.534;2023-02-05T19:41:53;7.40;83.50
65046;DHT22;54657;52.022;5.534;2023-02-05T19:44:22;7.40;83.60
65046;DHT22;54657;52.022;5.534;2023-02-05T19:47:30;7.40;83.70
65046;DHT22;54657;52.022;5.534;2023-02-05T19:50:33;7.40;83.80
65046;DHT22;54657;52.022;5.534;2023-02-05T19:55:37;7.30;83.80